CheckWX is a tool to help pilots better visualize weather data.  It is not intended as a substitute for an official pre-flight weather briefing.

23:30:10 UTC

KMIV TAF
Millville Municipal Airport
Millville, New Jersey, USA
KMIV 042320Z 0500/0524 VRB03KT P6SM BKN035 FM051400 25006KT P6SM BKN035

Apr-5@
00:00 UTC

Apr-5 @ 00:00 UTC

Apr-5@
14:00 UTC

Apr-5 @ 14:00 UTC

TAF KMIV 042320Z 0500/0524 VRB03KT P6SM BKN035

Expired

Wind
  • Variable at 3 KTS
Cloud Levels
  • Broken at 3,500' AGL

Apr-5@
14:00 UTC

Apr-5 @ 14:00 UTC

Apr-6@
00:00 UTC

Apr-6 @ 00:00 UTC

FM051400 25006KT P6SM BKN035

From

From Standard forecast or significant change

Wind
  • 250° at 6 KTS
Cloud Levels
  • Broken at 3,500' AGL